sensor_id;sensor_type;location;lat;lon;timestamp;P1;durP1;ratioP1;P2;durP2;ratioP2
79130;SDS011;68530;45.194;9.142;2023-05-07T00:01:37;4.18;;;2.22;;
79130;SDS011;68530;45.194;9.142;2023-05-07T00:04:02;4.95;;;2.70;;
79130;SDS011;68530;45.194;9.142;2023-05-07T00:06:28;4.63;;;2.72;;
79130;SDS011;68530;45.194;9.142;2023-05-07T00:08:54;7.32;;;2.67;;
79130;SDS011;68530;45.194;9.142;2023-05-07T00:11:21;5.32;;;3.08;;
79130;SDS011;68530;45.194;9.142;2023-05-07T00:13:47;6.60;;;2.80;;
79130;SDS011;68530;45.194;9.142;2023-05-07T00:16:13;5.95;;;3.00;;
79130;SDS011;68530;45.194;9.142;2023-05-07T00:18:38;5.03;;;2.60;;
79130;SDS011;68530;45.194;9.142;2023-05-07T00:21:03;5.90;;;2.85;;
79130;SDS011;68530;45.194;9.142;2023-05-07T00:23:29;4.93;;;2.92;;
79130;SDS011;68530;45.194;9.142;2023-05-07T00:25:54;3.85;;;2.58;;
79130;SDS011;68530;45.194;9.142;2023-05-07T00:28:20;4.47;;;2.83;;
79130;SDS011;68530;45.194;9.142;2023-05-07T00:30:46;5.47;;;2.72;;
79130;SDS011;68530;45.194;9.142;2023-05-07T00:33:11;5.45;;;2.50;;
79130;SDS011;68530;45.194;9.142;2023-05-07T00:35:36;4.43;;;2.72;;
79130;SDS011;68530;45.194;9.142;2023-05-07T00:38:02;5.72;;;2.50;;
79130;SDS011;68530;45.194;9.142;2023-05-07T00:40:27;4.10;;;2.83;;
79130;SDS011;68530;45.194;9.142;2023-05-07T00:42:53;5.50;;;2.50;;
79130;SDS011;68530;45.194;9.142;2023-05-07T00:45:23;4.35;;;2.60;;
79130;SDS011;68530;45.194;9.142;2023-05-07T00:47:55;7.28;;;3.10;;
79130;SDS011;68530;45.194;9.142;2023-05-07T00:50:24;5.55;;;2.75;;
79130;SDS011;68530;45.194;9.142;2023-05-07T00:52:51;5.30;;;2.75;;
79130;SDS011;68530;45.194;9.142;2023-05-07T00:55:17;4.75;;;2.58;;
79130;SDS011;68530;45.194;9.142;2023-05-07T00:57:42;4.22;;;2.60;;
79130;SDS011;68530;45.194;9.142;2023-05-07T01:00:09;3.90;;;2.45;;
79130;SDS011;68530;45.194;9.142;2023-05-07T01:02:37;3.65;;;2.40;;
79130;SDS011;68530;45.194;9.142;2023-05-07T01:05:03;4.10;;;2.30;;
79130;SDS011;68530;45.194;9.142;2023-05-07T01:07:31;4.05;;;2.58;;
79130;SDS011;68530;45.194;9.142;2023-05-07T01:09:58;4.93;;;2.70;;
79130;SDS011;68530;45.194;9.142;2023-05-07T01:12:24;5.45;;;2.42;;
79130;SDS011;68530;45.194;9.142;2023-05-07T01:14:50;4.68;;;2.53;;
79130;SDS011;68530;45.194;9.142;2023-05-07T01:17:17;6.38;;;2.53;;
79130;SDS011;68530;45.194;9.142;2023-05-07T01:19:42;4.53;;;2.38;;
79130;SDS011;68530;45.194;9.142;2023-05-07T01:22:09;3.72;;;2.13;;
79130;SDS011;68530;45.194;9.142;2023-05-07T01:24:36;4.40;;;2.22;;
79130;SDS011;68530;45.194;9.142;2023-05-07T01:27:02;5.18;;;2.42;;
79130;SDS011;68530;45.194;9.142;2023-05-07T01:29:28;4.60;;;2.30;;
79130;SDS011;68530;45.194;9.142;2023-05-07T01:31:54;4.60;;;2.72;;
79130;SDS011;68530;45.194;9.142;2023-05-07T01:34:22;4.43;;;2.33;;
79130;SDS011;68530;45.194;9.142;2023-05-07T01:36:51;4.72;;;2.50;;
79130;SDS011;68530;45.194;9.142;2023-05-07T01:39:20;5.95;;;2.28;;
79130;SDS011;68530;45.194;9.142;2023-05-07T01:41:46;5.93;;;3.30;;
79130;SDS011;68530;45.194;9.142;2023-05-07T01:44:12;6.30;;;3.25;;
79130;SDS011;68530;45.194;9.142;2023-05-07T01:46:38;6.45;;;3.47;;
79130;SDS011;68530;45.194;9.142;2023-05-07T01:49:03;5.20;;;3.40;;
79130;SDS011;68530;45.194;9.142;2023-05-07T01:51:29;6.30;;;3.22;;
79130;SDS011;68530;45.194;9.142;2023-05-07T01:53:55;6.28;;;3.65;;
79130;SDS011;68530;45.194;9.142;2023-05-07T01:56:21;5.55;;;3.50;;
79130;SDS011;68530;45.194;9.142;2023-05-07T01:58:46;5.40;;;3.55;;
79130;SDS011;68530;45.194;9.142;2023-05-07T02:01:13;7.43;;;4.32;;
79130;SDS011;68530;45.194;9.142;2023-05-07T02:03:39;7.60;;;4.05;;
79130;SDS011;68530;45.194;9.142;2023-05-07T02:06:04;7.68;;;4.35;;
79130;SDS011;68530;45.194;9.142;2023-05-07T02:08:30;6.55;;;4.05;;
79130;SDS011;68530;45.194;9.142;2023-05-07T02:10:56;8.23;;;4.30;;
79130;SDS011;68530;45.194;9.142;2023-05-07T02:13:21;7.88;;;3.78;;
79130;SDS011;68530;45.194;9.142;2023-05-07T02:15:47;7.97;;;3.95;;
79130;SDS011;68530;45.194;9.142;2023-05-07T02:18:15;6.53;;;3.95;;
79130;SDS011;68530;45.194;9.142;2023-05-07T02:20:41;7.00;;;4.22;;
79130;SDS011;68530;45.194;9.142;2023-05-07T02:23:07;9.10;;;4.68;;
79130;SDS011;68530;45.194;9.142;2023-05-07T02:25:32;7.50;;;4.90;;
79130;SDS011;68530;45.194;9.142;2023-05-07T02:27:57;10.82;;;5.43;;
79130;SDS011;68530;45.194;9.142;2023-05-07T02:30:23;8.77;;;5.00;;
79130;SDS011;68530;45.194;9.142;2023-05-07T02:32:48;7.90;;;4.57;;
79130;SDS011;68530;45.194;9.142;2023-05-07T02:35:14;7.90;;;4.80;;
79130;SDS011;68530;45.194;9.142;2023-05-07T02:37:40;8.65;;;4.80;;
79130;SDS011;68530;45.194;9.142;2023-05-07T02:40:05;7.00;;;4.07;;
79130;SDS011;68530;45.194;9.142;2023-05-07T02:42:31;6.63;;;3.75;;
79130;SDS011;68530;45.194;9.142;2023-05-07T02:44:56;5.72;;;3.83;;
79130;SDS011;68530;45.194;9.142;2023-05-07T02:47:22;5.65;;;3.78;;
79130;SDS011;68530;45.194;9.142;2023-05-07T02:49:47;7.30;;;3.75;;
79130;SDS011;68530;45.194;9.142;2023-05-07T02:52:12;6.10;;;3.95;;
79130;SDS011;68530;45.194;9.142;2023-05-07T02:54:38;6.97;;;3.40;;
79130;SDS011;68530;45.194;9.142;2023-05-07T02:57:03;5.38;;;3.55;;
79130;SDS011;68530;45.194;9.142;2023-05-07T02:59:28;5.97;;;3.40;;
79130;SDS011;68530;45.194;9.142;2023-05-07T03:01:54;5.13;;;3.28;;
79130;SDS011;68530;45.194;9.142;2023-05-07T03:04:19;4.57;;;3.42;;
79130;SDS011;68530;45.194;9.142;2023-05-07T03:06:45;6.68;;;3.40;;
79130;SDS011;68530;45.194;9.142;2023-05-07T03:09:10;7.22;;;3.60;;
79130;SDS011;68530;45.194;9.142;2023-05-07T03:11:36;6.40;;;3.70;;
79130;SDS011;68530;45.194;9.142;2023-05-07T03:14:01;6.80;;;4.25;;
79130;SDS011;68530;45.194;9.142;2023-05-07T03:16:27;6.43;;;4.00;;
79130;SDS011;68530;45.194;9.142;2023-05-07T03:18:52;7.07;;;3.83;;
79130;SDS011;68530;45.194;9.142;2023-05-07T03:21:18;5.47;;;3.88;;
79130;SDS011;68530;45.194;9.142;2023-05-07T03:23:43;6.85;;;4.63;;
79130;SDS011;68530;45.194;9.142;2023-05-07T03:26:08;7.60;;;3.65;;
79130;SDS011;68530;45.194;9.142;2023-05-07T03:28:34;6.40;;;3.60;;
79130;SDS011;68530;45.194;9.142;2023-05-07T03:30:59;7.55;;;4.30;;
79130;SDS011;68530;45.194;9.142;2023-05-07T03:33:25;6.18;;;4.10;;
79130;SDS011;68530;45.194;9.142;2023-05-07T03:35:52;6.78;;;4.03;;
79130;SDS011;68530;45.194;9.142;2023-05-07T03:38:17;6.03;;;4.22;;
79130;SDS011;68530;45.194;9.142;2023-05-07T03:40:43;6.20;;;3.85;;
79130;SDS011;68530;45.194;9.142;2023-05-07T03:43:08;8.38;;;4.15;;
79130;SDS011;68530;45.194;9.142;2023-05-07T03:45:33;5.63;;;3.90;;
79130;SDS011;68530;45.194;9.142;2023-05-07T03:47:59;5.85;;;4.18;;
79130;SDS011;68530;45.194;9.142;2023-05-07T03:50:24;7.65;;;4.07;;
79130;SDS011;68530;45.194;9.142;2023-05-07T03:52:50;5.97;;;3.88;;
79130;SDS011;68530;45.194;9.142;2023-05-07T03:55:15;6.95;;;3.85;;
79130;SDS011;68530;45.194;9.142;2023-05-07T03:57:40;7.53;;;4.30;;
79130;SDS011;68530;45.194;9.142;2023-05-07T04:00:06;7.15;;;4.65;;
79130;SDS011;68530;45.194;9.142;2023-05-07T04:02:32;6.47;;;4.55;;
79130;SDS011;68530;45.194;9.142;2023-05-07T04:04:58;7.40;;;4.10;;
79130;SDS011;68530;45.194;9.142;2023-05-07T04:07:23;7.07;;;4.22;;
79130;SDS011;68530;45.194;9.142;2023-05-07T04:09:49;8.07;;;4.00;;
79130;SDS011;68530;45.194;9.142;2023-05-07T04:12:14;7.57;;;4.53;;
79130;SDS011;68530;45.194;9.142;2023-05-07T04:14:40;6.32;;;3.72;;
79130;SDS011;68530;45.194;9.142;2023-05-07T04:17:05;5.85;;;3.90;;
79130;SDS011;68530;45.194;9.142;2023-05-07T04:19:32;5.75;;;3.67;;
79130;SDS011;68530;45.194;9.142;2023-05-07T04:21:58;4.90;;;2.88;;
79130;SDS011;68530;45.194;9.142;2023-05-07T04:24:23;3.53;;;2.72;;
79130;SDS011;68530;45.194;9.142;2023-05-07T04:26:49;4.60;;;2.83;;
79130;SDS011;68530;45.194;9.142;2023-05-07T04:29:16;4.70;;;2.80;;
79130;SDS011;68530;45.194;9.142;2023-05-07T04:31:41;3.55;;;2.40;;
79130;SDS011;68530;45.194;9.142;2023-05-07T04:34:09;3.42;;;2.33;;
79130;SDS011;68530;45.194;9.142;2023-05-07T04:36:38;4.45;;;2.58;;
79130;SDS011;68530;45.194;9.142;2023-05-07T04:39:03;5.72;;;2.30;;
79130;SDS011;68530;45.194;9.142;2023-05-07T04:41:29;4.13;;;2.42;;
79130;SDS011;68530;45.194;9.142;2023-05-07T04:43:55;4.10;;;2.47;;
79130;SDS011;68530;45.194;9.142;2023-05-07T04:46:21;5.03;;;2.75;;
79130;SDS011;68530;45.194;9.142;2023-05-07T04:48:47;4.43;;;2.25;;
79130;SDS011;68530;45.194;9.142;2023-05-07T04:51:12;4.65;;;3.05;;
79130;SDS011;68530;45.194;9.142;2023-05-07T04:53:38;4.82;;;3.00;;
79130;SDS011;68530;45.194;9.142;2023-05-07T04:56:03;5.90;;;3.55;;
79130;SDS011;68530;45.194;9.142;2023-05-07T04:58:29;4.55;;;3.40;;
79130;SDS011;68530;45.194;9.142;2023-05-07T05:00:56;5.13;;;3.40;;
79130;SDS011;68530;45.194;9.142;2023-05-07T05:03:22;5.90;;;3.85;;
79130;SDS011;68530;45.194;9.142;2023-05-07T05:05:51;6.72;;;3.80;;
79130;SDS011;68530;45.194;9.142;2023-05-07T05:08:17;7.22;;;4.57;;
79130;SDS011;68530;45.194;9.142;2023-05-07T05:10:43;6.32;;;4.22;;
79130;SDS011;68530;45.194;9.142;2023-05-07T05:13:08;6.75;;;4.40;;
79130;SDS011;68530;45.194;9.142;2023-05-07T05:15:34;6.50;;;4.07;;
79130;SDS011;68530;45.194;9.142;2023-05-07T05:18:00;9.10;;;3.90;;
79130;SDS011;68530;45.194;9.142;2023-05-07T05:20:25;5.78;;;3.85;;
79130;SDS011;68530;45.194;9.142;2023-05-07T05:22:51;5.55;;;3.92;;
79130;SDS011;68530;45.194;9.142;2023-05-07T05:25:16;5.57;;;3.95;;
79130;SDS011;68530;45.194;9.142;2023-05-07T05:27:42;5.57;;;3.70;;
79130;SDS011;68530;45.194;9.142;2023-05-07T05:30:07;5.68;;;4.03;;
79130;SDS011;68530;45.194;9.142;2023-05-07T05:32:33;6.47;;;4.40;;
79130;SDS011;68530;45.194;9.142;2023-05-07T05:34:58;6.35;;;3.90;;
79130;SDS011;68530;45.194;9.142;2023-05-07T05:37:24;7.45;;;4.55;;
79130;SDS011;68530;45.194;9.142;2023-05-07T05:39:50;7.13;;;4.60;;
79130;SDS011;68530;45.194;9.142;2023-05-07T05:42:15;7.05;;;5.07;;
79130;SDS011;68530;45.194;9.142;2023-05-07T05:44:40;8.02;;;4.88;;
79130;SDS011;68530;45.194;9.142;2023-05-07T05:47:06;6.88;;;4.53;;
79130;SDS011;68530;45.194;9.142;2023-05-07T05:49:31;7.70;;;5.10;;
79130;SDS011;68530;45.194;9.142;2023-05-07T05:51:56;6.97;;;5.10;;
79130;SDS011;68530;45.194;9.142;2023-05-07T05:54:22;7.88;;;5.22;;
79130;SDS011;68530;45.194;9.142;2023-05-07T05:56:47;6.50;;;4.45;;
79130;SDS011;68530;45.194;9.142;2023-05-07T05:59:13;6.10;;;4.22;;
79130;SDS011;68530;45.194;9.142;2023-05-07T06:01:38;8.93;;;5.07;;
79130;SDS011;68530;45.194;9.142;2023-05-07T06:04:04;7.28;;;4.55;;
79130;SDS011;68530;45.194;9.142;2023-05-07T06:06:29;6.13;;;4.95;;
79130;SDS011;68530;45.194;9.142;2023-05-07T06:08:57;6.90;;;4.85;;
79130;SDS011;68530;45.194;9.142;2023-05-07T06:11:22;6.18;;;4.30;;
79130;SDS011;68530;45.194;9.142;2023-05-07T06:13:48;5.82;;;4.25;;
79130;SDS011;68530;45.194;9.142;2023-05-07T06:16:13;5.45;;;4.05;;
79130;SDS011;68530;45.194;9.142;2023-05-07T06:18:40;5.18;;;3.85;;
79130;SDS011;68530;45.194;9.142;2023-05-07T06:21:05;6.65;;;4.43;;
79130;SDS011;68530;45.194;9.142;2023-05-07T06:23:30;6.00;;;4.22;;
79130;SDS011;68530;45.194;9.142;2023-05-07T06:25:56;6.03;;;4.15;;
79130;SDS011;68530;45.194;9.142;2023-05-07T06:28:21;6.63;;;4.32;;
79130;SDS011;68530;45.194;9.142;2023-05-07T06:30:46;6.25;;;3.65;;
79130;SDS011;68530;45.194;9.142;2023-05-07T06:33:13;10.25;;;4.05;;
79130;SDS011;68530;45.194;9.142;2023-05-07T06:35:39;5.53;;;4.00;;
79130;SDS011;68530;45.194;9.142;2023-05-07T06:38:04;6.25;;;4.65;;
79130;SDS011;68530;45.194;9.142;2023-05-07T06:40:30;7.25;;;4.63;;
79130;SDS011;68530;45.194;9.142;2023-05-07T06:42:55;7.55;;;5.05;;
79130;SDS011;68530;45.194;9.142;2023-05-07T06:45:20;7.75;;;4.75;;
79130;SDS011;68530;45.194;9.142;2023-05-07T06:47:46;8.45;;;5.50;;
79130;SDS011;68530;45.194;9.142;2023-05-07T06:50:11;8.88;;;5.90;;
79130;SDS011;68530;45.194;9.142;2023-05-07T06:52:37;9.13;;;6.10;;
79130;SDS011;68530;45.194;9.142;2023-05-07T06:55:02;9.68;;;5.85;;
79130;SDS011;68530;45.194;9.142;2023-05-07T06:57:28;7.20;;;5.38;;
79130;SDS011;68530;45.194;9.142;2023-05-07T06:59:53;6.03;;;4.53;;
79130;SDS011;68530;45.194;9.142;2023-05-07T07:02:18;6.32;;;4.68;;
79130;SDS011;68530;45.194;9.142;2023-05-07T07:04:44;5.10;;;3.97;;
79130;SDS011;68530;45.194;9.142;2023-05-07T07:07:10;4.93;;;3.72;;
79130;SDS011;68530;45.194;9.142;2023-05-07T07:09:35;4.95;;;3.38;;
79130;SDS011;68530;45.194;9.142;2023-05-07T07:12:00;5.95;;;3.28;;
79130;SDS011;68530;45.194;9.142;2023-05-07T07:14:26;5.93;;;3.25;;
79130;SDS011;68530;45.194;9.142;2023-05-07T07:16:51;6.13;;;3.55;;
79130;SDS011;68530;45.194;9.142;2023-05-07T07:19:17;5.30;;;3.40;;
79130;SDS011;68530;45.194;9.142;2023-05-07T07:21:42;4.45;;;3.35;;
79130;SDS011;68530;45.194;9.142;2023-05-07T07:24:07;4.95;;;3.42;;
79130;SDS011;68530;45.194;9.142;2023-05-07T07:26:33;5.68;;;3.30;;
79130;SDS011;68530;45.194;9.142;2023-05-07T07:28:58;5.25;;;3.50;;
79130;SDS011;68530;45.194;9.142;2023-05-07T07:31:23;5.80;;;3.22;;
79130;SDS011;68530;45.194;9.142;2023-05-07T07:33:49;4.95;;;3.13;;
79130;SDS011;68530;45.194;9.142;2023-05-07T07:36:15;7.53;;;3.60;;
79130;SDS011;68530;45.194;9.142;2023-05-07T07:38:40;5.82;;;3.42;;
79130;SDS011;68530;45.194;9.142;2023-05-07T07:41:07;5.53;;;3.28;;
79130;SDS011;68530;45.194;9.142;2023-05-07T07:43:33;5.55;;;3.40;;
79130;SDS011;68530;45.194;9.142;2023-05-07T07:45:58;5.53;;;3.78;;
79130;SDS011;68530;45.194;9.142;2023-05-07T07:48:23;5.43;;;3.35;;
79130;SDS011;68530;45.194;9.142;2023-05-07T07:50:49;9.52;;;3.47;;
79130;SDS011;68530;45.194;9.142;2023-05-07T07:53:16;5.40;;;3.20;;
79130;SDS011;68530;45.194;9.142;2023-05-07T07:55:42;15.52;;;3.10;;
79130;SDS011;68530;45.194;9.142;2023-05-07T07:58:07;5.60;;;2.85;;
79130;SDS011;68530;45.194;9.142;2023-05-07T08:00:32;5.75;;;3.05;;
79130;SDS011;68530;45.194;9.142;2023-05-07T08:02:58;4.38;;;2.80;;
79130;SDS011;68530;45.194;9.142;2023-05-07T08:05:24;4.60;;;3.10;;
79130;SDS011;68530;45.194;9.142;2023-05-07T08:07:50;4.25;;;2.50;;
79130;SDS011;68530;45.194;9.142;2023-05-07T08:10:17;5.03;;;3.00;;
79130;SDS011;68530;45.194;9.142;2023-05-07T08:12:46;6.00;;;3.30;;
79130;SDS011;68530;45.194;9.142;2023-05-07T08:15:15;8.63;;;2.50;;
79130;SDS011;68530;45.194;9.142;2023-05-07T08:17:41;5.00;;;3.40;;
79130;SDS011;68530;45.194;9.142;2023-05-07T08:20:07;4.03;;;2.72;;
79130;SDS011;68530;45.194;9.142;2023-05-07T08:22:33;4.70;;;2.67;;
79130;SDS011;68530;45.194;9.142;2023-05-07T08:24:59;3.83;;;2.47;;
79130;SDS011;68530;45.194;9.142;2023-05-07T08:27:25;8.45;;;2.58;;
79130;SDS011;68530;45.194;9.142;2023-05-07T08:29:50;7.45;;;2.70;;
79130;SDS011;68530;45.194;9.142;2023-05-07T08:32:16;4.72;;;2.40;;
79130;SDS011;68530;45.194;9.142;2023-05-07T08:34:41;5.30;;;2.90;;
79130;SDS011;68530;45.194;9.142;2023-05-07T08:37:06;4.95;;;2.45;;
79130;SDS011;68530;45.194;9.142;2023-05-07T08:39:32;4.78;;;3.35;;
79130;SDS011;68530;45.194;9.142;2023-05-07T08:41:57;4.53;;;3.33;;
79130;SDS011;68530;45.194;9.142;2023-05-07T08:44:26;3.63;;;2.60;;
79130;SDS011;68530;45.194;9.142;2023-05-07T08:46:53;5.85;;;3.15;;
79130;SDS011;68530;45.194;9.142;2023-05-07T08:49:20;4.03;;;2.42;;
79130;SDS011;68530;45.194;9.142;2023-05-07T08:51:46;4.05;;;2.65;;
79130;SDS011;68530;45.194;9.142;2023-05-07T08:54:12;4.60;;;2.80;;
79130;SDS011;68530;45.194;9.142;2023-05-07T08:56:41;5.13;;;2.55;;
79130;SDS011;68530;45.194;9.142;2023-05-07T08:59:06;5.38;;;3.08;;
79130;SDS011;68530;45.194;9.142;2023-05-07T09:01:32;8.23;;;3.40;;
79130;SDS011;68530;45.194;9.142;2023-05-07T09:04:00;13.65;;;3.35;;
79130;SDS011;68530;45.194;9.142;2023-05-07T09:06:25;7.35;;;3.42;;
79130;SDS011;68530;45.194;9.142;2023-05-07T09:08:52;19.67;;;5.57;;
79130;SDS011;68530;45.194;9.142;2023-05-07T09:11:22;13.27;;;4.78;;
79130;SDS011;68530;45.194;9.142;2023-05-07T09:13:48;15.13;;;4.53;;
79130;SDS011;68530;45.194;9.142;2023-05-07T09:16:15;13.15;;;4.70;;
79130;SDS011;68530;45.194;9.142;2023-05-07T09:18:41;7.78;;;4.10;;
79130;SDS011;68530;45.194;9.142;2023-05-07T09:21:09;12.93;;;3.85;;
79130;SDS011;68530;45.194;9.142;2023-05-07T09:23:35;13.15;;;3.92;;
79130;SDS011;68530;45.194;9.142;2023-05-07T09:26:01;10.05;;;3.40;;
79130;SDS011;68530;45.194;9.142;2023-05-07T09:28:27;5.82;;;3.30;;
79130;SDS011;68530;45.194;9.142;2023-05-07T09:30:52;6.97;;;3.72;;
79130;SDS011;68530;45.194;9.142;2023-05-07T09:33:17;4.45;;;3.03;;
79130;SDS011;68530;45.194;9.142;2023-05-07T09:35:43;6.22;;;3.75;;
79130;SDS011;68530;45.194;9.142;2023-05-07T09:38:08;5.40;;;4.03;;
79130;SDS011;68530;45.194;9.142;2023-05-07T09:40:34;5.28;;;4.38;;
79130;SDS011;68530;45.194;9.142;2023-05-07T09:43:12;5.57;;;4.05;;
79130;SDS011;68530;45.194;9.142;2023-05-07T09:45:38;6.47;;;3.08;;
79130;SDS011;68530;45.194;9.142;2023-05-07T09:48:04;5.93;;;3.55;;
79130;SDS011;68530;45.194;9.142;2023-05-07T09:50:42;13.80;;;4.03;;
79130;SDS011;68530;45.194;9.142;2023-05-07T09:53:14;11.48;;;3.28;;
79130;SDS011;68530;45.194;9.142;2023-05-07T09:55:42;5.40;;;3.80;;
79130;SDS011;68530;45.194;9.142;2023-05-07T09:58:08;5.07;;;3.42;;
79130;SDS011;68530;45.194;9.142;2023-05-07T10:00:34;7.80;;;3.20;;
79130;SDS011;68530;45.194;9.142;2023-05-07T10:03:01;6.35;;;3.25;;
79130;SDS011;68530;45.194;9.142;2023-05-07T10:05:26;3.95;;;2.65;;
79130;SDS011;68530;45.194;9.142;2023-05-07T10:07:52;4.20;;;2.55;;
79130;SDS011;68530;45.194;9.142;2023-05-07T10:10:18;6.18;;;2.78;;
79130;SDS011;68530;45.194;9.142;2023-05-07T10:12:43;5.60;;;2.63;;
79130;SDS011;68530;45.194;9.142;2023-05-07T10:15:10;6.93;;;2.65;;
79130;SDS011;68530;45.194;9.142;2023-05-07T10:17:37;4.95;;;2.58;;
79130;SDS011;68530;45.194;9.142;2023-05-07T10:20:04;3.63;;;2.30;;
79130;SDS011;68530;45.194;9.142;2023-05-07T10:22:32;3.50;;;2.13;;
79130;SDS011;68530;45.194;9.142;2023-05-07T10:25:03;3.80;;;2.30;;
79130;SDS011;68530;45.194;9.142;2023-05-07T10:27:35;4.20;;;2.47;;
79130;SDS011;68530;45.194;9.142;2023-05-07T10:34:59;4.45;;;2.05;;
79130;SDS011;68530;45.194;9.142;2023-05-07T10:37:27;5.18;;;2.08;;
79130;SDS011;68530;45.194;9.142;2023-05-07T10:39:53;3.00;;;1.80;;
79130;SDS011;68530;45.194;9.142;2023-05-07T10:42:19;3.75;;;1.88;;
79130;SDS011;68530;45.194;9.142;2023-05-07T10:44:45;6.72;;;1.80;;
79130;SDS011;68530;45.194;9.142;2023-05-07T10:47:11;3.05;;;1.65;;
79130;SDS011;68530;45.194;9.142;2023-05-07T10:59:53;3.75;;;1.55;;
79130;SDS011;68530;45.194;9.142;2023-05-07T11:02:19;3.50;;;1.48;;
79130;SDS011;68530;45.194;9.142;2023-05-07T11:04:44;3.70;;;1.85;;
79130;SDS011;68530;45.194;9.142;2023-05-07T11:10:01;3.15;;;1.90;;
79130;SDS011;68530;45.194;9.142;2023-05-07T11:15:07;2.80;;;1.67;;
79130;SDS011;68530;45.194;9.142;2023-05-07T11:17:52;2.40;;;1.35;;
79130;SDS011;68530;45.194;9.142;2023-05-07T11:20:43;2.90;;;1.58;;
79130;SDS011;68530;45.194;9.142;2023-05-07T11:23:54;2.78;;;1.70;;
79130;SDS011;68530;45.194;9.142;2023-05-07T11:26:01;3.42;;;1.95;;
79130;SDS011;68530;45.194;9.142;2023-05-07T11:28:36;3.00;;;1.67;;
79130;SDS011;68530;45.194;9.142;2023-05-07T11:31:03;3.10;;;1.50;;
79130;SDS011;68530;45.194;9.142;2023-05-07T11:33:29;3.10;;;1.60;;
79130;SDS011;68530;45.194;9.142;2023-05-07T11:35:55;2.60;;;1.58;;
79130;SDS011;68530;45.194;9.142;2023-05-07T11:38:22;3.17;;;1.60;;
79130;SDS011;68530;45.194;9.142;2023-05-07T11:40:48;3.55;;;1.83;;
79130;SDS011;68530;45.194;9.142;2023-05-07T11:43:15;3.75;;;1.77;;
79130;SDS011;68530;45.194;9.142;2023-05-07T11:45:40;2.55;;;1.38;;
79130;SDS011;68530;45.194;9.142;2023-05-07T11:48:05;4.60;;;1.80;;
79130;SDS011;68530;45.194;9.142;2023-05-07T11:50:31;2.90;;;1.55;;
79130;SDS011;68530;45.194;9.142;2023-05-07T11:52:56;3.22;;;1.77;;
79130;SDS011;68530;45.194;9.142;2023-05-07T11:55:23;3.40;;;1.90;;
79130;SDS011;68530;45.194;9.142;2023-05-07T11:57:50;3.97;;;1.70;;
79130;SDS011;68530;45.194;9.142;2023-05-07T12:00:16;3.00;;;1.92;;
79130;SDS011;68530;45.194;9.142;2023-05-07T12:02:42;4.45;;;1.75;;
79130;SDS011;68530;45.194;9.142;2023-05-07T12:05:08;7.70;;;2.80;;
79130;SDS011;68530;45.194;9.142;2023-05-07T12:07:33;4.60;;;2.50;;
79130;SDS011;68530;45.194;9.142;2023-05-07T12:09:59;3.00;;;1.52;;
79130;SDS011;68530;45.194;9.142;2023-05-07T12:12:28;3.25;;;1.88;;
79130;SDS011;68530;45.194;9.142;2023-05-07T12:14:55;3.83;;;1.90;;
79130;SDS011;68530;45.194;9.142;2023-05-07T12:17:20;3.47;;;1.95;;
79130;SDS011;68530;45.194;9.142;2023-05-07T12:19:46;3.58;;;2.05;;
79130;SDS011;68530;45.194;9.142;2023-05-07T12:22:12;3.22;;;1.75;;
79130;SDS011;68530;45.194;9.142;2023-05-07T12:24:56;2.97;;;2.00;;
79130;SDS011;68530;45.194;9.142;2023-05-07T12:27:22;3.47;;;1.85;;
79130;SDS011;68530;45.194;9.142;2023-05-07T12:29:48;3.47;;;2.10;;
79130;SDS011;68530;45.194;9.142;2023-05-07T12:32:15;3.47;;;2.40;;
79130;SDS011;68530;45.194;9.142;2023-05-07T12:34:42;3.90;;;2.20;;
79130;SDS011;68530;45.194;9.142;2023-05-07T12:37:07;4.40;;;2.20;;
79130;SDS011;68530;45.194;9.142;2023-05-07T12:39:33;3.75;;;2.38;;
79130;SDS011;68530;45.194;9.142;2023-05-07T12:41:59;3.53;;;2.28;;
79130;SDS011;68530;45.194;9.142;2023-05-07T12:44:25;4.13;;;2.40;;
79130;SDS011;68530;45.194;9.142;2023-05-07T12:46:53;4.43;;;2.70;;
79130;SDS011;68530;45.194;9.142;2023-05-07T12:49:19;4.65;;;2.60;;
79130;SDS011;68530;45.194;9.142;2023-05-07T12:51:46;3.40;;;2.40;;
79130;SDS011;68530;45.194;9.142;2023-05-07T12:54:12;4.93;;;2.38;;
79130;SDS011;68530;45.194;9.142;2023-05-07T12:56:39;3.67;;;2.50;;
79130;SDS011;68530;45.194;9.142;2023-05-07T12:59:05;3.90;;;2.40;;
79130;SDS011;68530;45.194;9.142;2023-05-07T13:01:30;4.35;;;2.60;;
79130;SDS011;68530;45.194;9.142;2023-05-07T13:03:58;3.42;;;2.60;;
79130;SDS011;68530;45.194;9.142;2023-05-07T13:06:26;6.22;;;2.97;;
79130;SDS011;68530;45.194;9.142;2023-05-07T13:08:51;4.53;;;2.50;;
79130;SDS011;68530;45.194;9.142;2023-05-07T13:11:16;8.68;;;3.00;;
79130;SDS011;68530;45.194;9.142;2023-05-07T13:13:42;5.93;;;2.50;;
79130;SDS011;68530;45.194;9.142;2023-05-07T13:16:08;4.20;;;2.35;;
79130;SDS011;68530;45.194;9.142;2023-05-07T13:18:35;4.20;;;2.90;;
79130;SDS011;68530;45.194;9.142;2023-05-07T13:21:01;4.05;;;2.42;;
79130;SDS011;68530;45.194;9.142;2023-05-07T13:23:27;4.90;;;2.45;;
79130;SDS011;68530;45.194;9.142;2023-05-07T13:25:53;3.63;;;2.65;;
79130;SDS011;68530;45.194;9.142;2023-05-07T13:28:21;3.60;;;2.45;;
79130;SDS011;68530;45.194;9.142;2023-05-07T13:30:48;4.13;;;3.00;;
79130;SDS011;68530;45.194;9.142;2023-05-07T13:33:13;4.72;;;3.00;;
79130;SDS011;68530;45.194;9.142;2023-05-07T13:35:40;4.47;;;2.63;;
79130;SDS011;68530;45.194;9.142;2023-05-07T13:38:06;6.03;;;3.22;;
79130;SDS011;68530;45.194;9.142;2023-05-07T13:40:31;3.65;;;2.85;;
79130;SDS011;68530;45.194;9.142;2023-05-07T13:42:57;3.65;;;2.83;;
79130;SDS011;68530;45.194;9.142;2023-05-07T13:45:23;4.18;;;2.78;;
79130;SDS011;68530;45.194;9.142;2023-05-07T13:47:50;5.85;;;3.05;;
79130;SDS011;68530;45.194;9.142;2023-05-07T13:50:16;4.40;;;3.00;;
79130;SDS011;68530;45.194;9.142;2023-05-07T13:52:43;3.97;;;3.10;;
79130;SDS011;68530;45.194;9.142;2023-05-07T13:55:15;4.88;;;2.92;;
79130;SDS011;68530;45.194;9.142;2023-05-07T13:57:44;4.78;;;2.67;;
79130;SDS011;68530;45.194;9.142;2023-05-07T14:00:10;4.80;;;3.33;;
79130;SDS011;68530;45.194;9.142;2023-05-07T14:02:36;4.25;;;3.08;;
79130;SDS011;68530;45.194;9.142;2023-05-07T14:05:02;3.50;;;3.00;;
79130;SDS011;68530;45.194;9.142;2023-05-07T14:07:27;4.88;;;3.42;;
79130;SDS011;68530;45.194;9.142;2023-05-07T14:09:53;4.10;;;3.00;;
79130;SDS011;68530;45.194;9.142;2023-05-07T14:12:19;5.13;;;3.03;;
79130;SDS011;68530;45.194;9.142;2023-05-07T14:14:44;5.97;;;2.83;;
79130;SDS011;68530;45.194;9.142;2023-05-07T14:17:10;6.07;;;2.90;;
79130;SDS011;68530;45.194;9.142;2023-05-07T14:19:35;6.18;;;3.20;;
79130;SDS011;68530;45.194;9.142;2023-05-07T14:22:01;6.45;;;3.20;;
79130;SDS011;68530;45.194;9.142;2023-05-07T14:24:27;4.53;;;2.83;;
79130;SDS011;68530;45.194;9.142;2023-05-07T14:26:52;4.60;;;3.13;;
79130;SDS011;68530;45.194;9.142;2023-05-07T14:29:18;4.10;;;2.90;;
79130;SDS011;68530;45.194;9.142;2023-05-07T14:31:44;5.82;;;3.78;;
79130;SDS011;68530;45.194;9.142;2023-05-07T14:34:10;5.80;;;3.50;;
79130;SDS011;68530;45.194;9.142;2023-05-07T14:36:36;4.90;;;3.10;;
79130;SDS011;68530;45.194;9.142;2023-05-07T14:39:02;5.20;;;3.20;;
79130;SDS011;68530;45.194;9.142;2023-05-07T14:41:28;6.68;;;2.92;;
79130;SDS011;68530;45.194;9.142;2023-05-07T14:43:54;3.90;;;2.92;;
79130;SDS011;68530;45.194;9.142;2023-05-07T14:46:19;4.45;;;2.80;;
79130;SDS011;68530;45.194;9.142;2023-05-07T14:48:45;5.93;;;3.10;;
79130;SDS011;68530;45.194;9.142;2023-05-07T14:51:13;4.55;;;2.90;;
79130;SDS011;68530;45.194;9.142;2023-05-07T14:53:40;6.60;;;3.58;;
79130;SDS011;68530;45.194;9.142;2023-05-07T14:56:06;4.40;;;3.25;;
79130;SDS011;68530;45.194;9.142;2023-05-07T14:58:31;4.30;;;2.88;;
79130;SDS011;68530;45.194;9.142;2023-05-07T15:00:57;5.80;;;3.58;;
79130;SDS011;68530;45.194;9.142;2023-05-07T15:03:22;5.35;;;3.55;;